createdAt,value
2016-04-03T15:31:45.348Z,52.54
2016-04-03T15:32:45.475Z,52.66
2016-04-03T15:33:45.463Z,52.47
2016-04-03T15:34:45.418Z,52.34
2016-04-03T15:35:45.405Z,52.66
2016-04-03T15:36:45.377Z,52.08
2016-04-03T15:37:45.365Z,51.5
2016-04-03T15:38:45.335Z,52.18
2016-04-03T15:39:45.322Z,51.41
2016-04-03T15:40:45.637Z,51.31
2016-04-03T15:41:45.281Z,50.85
2016-04-03T15:42:45.267Z,50.95
2016-04-03T15:43:45.240Z,50.47
2016-04-03T15:44:45.227Z,50.37
2016-04-03T15:45:45.213Z,51.43
2016-04-03T15:46:45.184Z,50.18
2016-04-03T15:47:45.172Z,49.89
2016-04-03T15:48:45.159Z,49.7
2016-04-03T15:49:45.146Z,50.95
2016-04-03T15:50:45.133Z,50.11
2016-04-03T15:51:44.964Z,49.12
2016-04-03T15:52:45.107Z,48.95
2016-04-03T15:53:45.078Z,49.63
2016-04-03T15:54:45.066Z,49.34
2016-04-03T15:55:45.053Z,49.34
2016-04-03T15:56:45.040Z,49.22
2016-04-03T15:57:45.027Z,49.05
2016-04-03T15:58:44.998Z,49.7
2016-04-03T15:59:45.001Z,49.15
2016-04-03T16:00:44.989Z,49.43
2016-04-03T16:01:44.960Z,48.86
2016-04-03T16:02:44.946Z,49.34
2016-04-03T16:03:44.934Z,49.91
2016-04-03T16:04:44.921Z,49.43
2016-04-03T16:05:44.908Z,49.15
2016-04-03T16:06:44.896Z,49.43
2016-04-03T16:07:44.882Z,49.73
2016-04-03T16:08:44.869Z,50.37
2016-04-03T16:09:44.857Z,49.6
2016-04-03T16:10:44.828Z,50.37
2016-04-03T16:11:44.815Z,50.18
2016-04-03T16:12:44.817Z,49.41
2016-04-03T16:13:44.789Z,49.32
2016-04-03T16:14:44.776Z,49.51
2016-04-03T16:15:44.763Z,49.32
2016-04-03T16:16:44.750Z,50.27
2016-04-03T16:17:44.753Z,50.76
2016-04-03T16:18:44.725Z,50.27
2016-04-03T16:19:44.711Z,50.76
2016-04-03T16:20:44.698Z,49.6
2016-04-03T16:21:44.685Z,50.09
2016-04-03T16:22:44.673Z,50.18
2016-04-03T16:23:44.644Z,50.63
2016-04-03T16:24:44.661Z,50.95
2016-04-03T16:25:44.618Z,50.35
2016-04-03T16:26:44.605Z,50.45
2016-04-03T16:27:44.592Z,50.37
2016-04-03T16:28:44.595Z,50.25
2016-04-03T16:29:44.566Z,51.02
2016-04-03T16:30:44.553Z,51.31
2016-04-03T16:31:44.541Z,51.14
2016-04-03T16:32:44.527Z,50.83
2016-04-03T16:33:44.499Z,50.93
2016-04-03T16:34:44.486Z,51.12
2016-04-03T16:35:44.473Z,51.31
2016-04-03T16:36:44.476Z,51.12
2016-04-03T16:37:44.463Z,51.41
2016-04-03T16:38:44.449Z,51.41
2016-04-03T16:39:44.421Z,51.31
2016-04-03T16:40:44.424Z,51.02
2016-04-03T16:41:44.411Z,51.41
2016-04-03T16:42:44.382Z,51.5
2016-04-03T16:43:44.370Z,51.6
2016-04-03T16:44:44.357Z,51.48
2016-04-03T16:45:44.359Z,51.38
2016-04-03T16:46:44.331Z,52.15
2016-04-03T16:47:44.302Z,52.73
2016-04-03T16:48:44.306Z,52.73
2016-04-03T16:49:44.276Z,52.73
2016-04-03T16:50:44.264Z,52.73
2016-04-03T16:51:44.250Z,52.15
2016-04-03T16:52:44.237Z,52.34
2016-04-03T16:53:44.224Z,52.15
2016-04-03T16:54:44.211Z,52.15
2016-04-03T16:55:44.199Z,52.25
2016-04-03T16:56:44.186Z,52.25
2016-04-03T16:57:44.158Z,52.44
2016-04-03T16:58:44.160Z,52.92
2016-04-03T16:59:44.131Z,52.63
2016-04-03T17:00:44.119Z,52.61
2016-04-03T17:01:44.106Z,52.73
2016-04-03T17:02:44.093Z,52.8
2016-04-03T17:03:44.080Z,52.8
2016-04-03T17:04:44.051Z,52.8
2016-04-03T17:05:44.054Z,52.7
2016-04-03T17:06:44.041Z,52.8
2016-04-03T17:07:44.012Z,52.89
2016-04-03T17:08:43.999Z,52.61
2016-04-03T17:09:43.987Z,52.89
2016-04-03T17:10:43.974Z,53.57
2016-04-03T17:11:43.961Z,53.57
2016-04-03T17:12:43.948Z,53.47
2016-04-03T17:13:43.935Z,53.47
2016-04-03T17:14:43.921Z,53.28
2016-04-03T17:15:43.893Z,53.38
2016-04-03T17:16:43.911Z,53.83
2016-04-03T17:17:43.867Z,53.54
2016-04-03T17:18:43.854Z,53.83
2016-04-03T17:19:43.842Z,53.74
2016-04-03T17:20:43.828Z,53.83
2016-04-03T17:21:43.847Z,53.54
2016-04-03T17:22:43.786Z,54.02
2016-04-03T17:23:43.774Z,53.86
2016-04-03T17:24:43.777Z,54.79
2016-04-03T17:25:43.763Z,54.5
2016-04-03T17:26:43.719Z,54.22
2016-04-03T17:27:43.722Z,54.12
2016-04-03T17:28:43.709Z,54.22
2016-04-03T17:29:43.696Z,54.79
2016-04-03T17:30:43.668Z,54.79
2016-04-03T17:31:43.655Z,55.46
2016-04-03T17:32:43.641Z,55.27
2016-04-03T17:33:43.629Z,54.6
2016-04-03T17:34:43.616Z,54.5
2016-04-03T17:35:43.587Z,54.69
2016-04-03T17:36:43.574Z,54.69
2016-04-03T17:37:43.577Z,54.6
2016-04-03T17:38:43.549Z,54.6
2016-04-03T17:39:43.536Z,55.18
2016-04-03T17:40:43.523Z,55.08
2016-04-03T17:41:43.494Z,55.08
2016-04-03T17:42:43.496Z,55.08
2016-04-03T17:43:43.468Z,55.34
2016-04-03T17:44:43.456Z,55.53
2016-04-03T17:45:43.442Z,55.44
2016-04-03T17:46:43.429Z,55.24
2016-04-03T17:47:43.417Z,55.34
2016-04-03T17:48:43.404Z,55.73
2016-04-03T17:49:43.376Z,55.73
2016-04-03T17:50:43.362Z,55.63
2016-04-03T17:51:43.365Z,55.73
2016-04-03T17:52:43.337Z,56.49
2016-04-03T17:53:43.308Z,56.4
2016-04-03T17:54:43.295Z,56.4
2016-04-03T17:55:43.281Z,56.11
2016-04-03T17:56:43.269Z,55.91
2016-04-03T17:57:43.255Z,56.21
2016-04-03T17:58:43.243Z,56.21
2016-04-03T17:59:43.231Z,56.11
2016-04-03T18:00:43.202Z,56.3
2016-04-03T18:01:43.189Z,57.07
2016-04-03T18:02:43.175Z,56.98
2016-04-03T18:03:43.163Z,56.78
2016-04-03T18:04:43.134Z,57.07
2016-04-03T18:05:43.121Z,57.04
2016-04-03T18:06:43.108Z,57.17
2016-04-03T18:07:43.111Z,57.33
2016-04-03T18:08:43.082Z,56.95
2016-04-03T18:09:43.054Z,57.23
2016-04-03T18:10:43.041Z,57.33
2016-04-03T18:11:43.029Z,57.23
2016-04-03T18:12:43.015Z,56.85
2016-04-03T18:13:43.002Z,56.85
2016-04-03T18:14:42.989Z,57.14
2016-04-03T18:15:42.992Z,57.36
2016-04-03T18:16:42.948Z,57.14
2016-04-03T18:17:42.935Z,57.33
2016-04-03T18:18:42.923Z,57.33
2016-04-03T18:19:42.909Z,57.33
2016-04-03T18:20:42.896Z,57.52
2016-04-03T18:21:42.883Z,57.33
2016-04-03T18:22:42.870Z,57.81
2016-04-03T18:23:42.842Z,58
2016-04-03T18:24:42.829Z,57.81
2016-04-03T18:25:42.801Z,57.71
2016-04-03T18:26:42.787Z,57.9
2016-04-03T18:27:42.775Z,57.71
2016-04-03T18:28:42.761Z,57.9
2016-04-03T18:29:42.748Z,57.9
2016-04-03T18:30:42.736Z,58.1
2016-04-03T18:31:42.712Z,58.2
2016-04-03T18:32:42.700Z,58.2
2016-04-03T18:33:42.671Z,58.2
2016-04-03T18:34:42.658Z,57.9
2016-04-03T18:35:42.645Z,58.39
2016-04-03T18:36:42.632Z,58
2016-04-03T18:37:42.616Z,58.2
2016-04-03T18:38:42.603Z,58.48
2016-04-03T18:39:42.575Z,58.58
2016-04-03T18:40:42.562Z,58.48
2016-04-03T18:41:42.549Z,58.29
2016-04-03T18:42:42.537Z,58.96
2016-04-03T18:43:42.524Z,58.58
2016-04-03T18:44:42.495Z,58.77
2016-04-03T18:45:42.482Z,58.58
2016-04-03T18:46:42.470Z,58.77
2016-04-03T18:47:42.455Z,58.87
2016-04-03T18:48:42.444Z,58.48
2016-04-03T18:49:42.415Z,58
2016-04-03T18:50:42.402Z,58.58
2016-04-03T18:51:42.389Z,58.48
2016-04-03T18:52:42.376Z,58.39
2016-04-03T18:53:42.363Z,58.77
2016-04-03T18:54:42.349Z,58.58
2016-04-03T18:55:42.321Z,58.96
2016-04-03T18:56:42.309Z,59.06
2016-04-03T18:57:42.295Z,59.16
2016-04-03T18:58:42.282Z,58.67
2016-04-03T18:59:42.254Z,58.96
2016-04-03T19:00:42.257Z,58.48
2016-04-03T19:01:42.228Z,58.67
2016-04-03T19:02:42.387Z,58.58
2016-04-03T19:03:42.187Z,58.67
2016-04-03T19:04:42.206Z,58.67
2016-04-03T19:05:42.161Z,58.77
2016-04-03T19:06:42.148Z,59.16
2016-04-03T19:07:42.135Z,58.96
2016-04-03T19:08:42.106Z,58.96
2016-04-03T19:09:42.094Z,59.64
2016-04-03T19:10:42.081Z,59.7
2016-04-03T19:11:42.052Z,59.92
2016-04-03T19:12:42.039Z,59.89
2016-04-03T19:13:42.025Z,59.41
2016-04-03T19:14:42.014Z,59.41
2016-04-03T19:15:42.001Z,59.83
2016-04-03T19:16:41.971Z,60.47
2016-04-03T19:17:41.959Z,60.31
2016-04-03T19:18:41.946Z,60.66
2016-04-03T19:19:41.933Z,60.11
2016-04-03T19:20:41.904Z,60.47
2016-04-03T19:21:41.892Z,60.18
2016-04-03T19:22:41.879Z,59.7
2016-04-03T19:23:41.866Z,59.89
2016-04-03T19:24:41.852Z,60.08
2016-04-03T19:25:41.824Z,60.18
2016-04-03T19:26:41.811Z,60.08
2016-04-03T19:27:41.799Z,60.47
2016-04-03T19:28:41.770Z,60.28
2016-04-03T19:29:41.757Z,60.18
2016-04-03T19:30:41.775Z,60.28
2016-04-03T19:31:41.746Z,60.38
2016-04-03T19:32:41.718Z,60.57
2016-04-03T19:33:41.690Z,61.24
2016-04-03T19:34:41.676Z,61.24
2016-04-03T19:35:41.664Z,60.66
2016-04-03T19:36:41.635Z,60.57
2016-04-03T19:37:41.637Z,61.24
2016-04-03T19:38:41.625Z,60.95
2016-04-03T19:39:41.596Z,61.14
2016-04-03T19:40:41.583Z,61.14
2016-04-03T19:41:41.570Z,60.95
2016-04-03T19:42:41.558Z,60.85
2016-04-03T19:43:41.528Z,61.14
2016-04-03T19:44:41.516Z,60.85
2016-04-03T19:45:41.503Z,60.95
2016-04-03T19:46:41.475Z,61.43
2016-04-03T19:47:41.461Z,61.24
2016-04-03T19:48:41.464Z,61.05
2016-04-03T19:49:41.435Z,61.24
2016-04-03T19:50:41.407Z,61.14
2016-04-03T19:51:41.394Z,61.43
2016-04-03T19:52:41.381Z,61.72
2016-04-03T19:53:41.368Z,61.91
2016-04-03T19:54:41.340Z,61.14
2016-04-03T19:55:41.327Z,61.91
2016-04-03T19:56:41.329Z,61.14
2016-04-03T19:57:41.301Z,61.72
2016-04-03T19:58:41.272Z,61.72
2016-04-03T19:59:41.259Z,61.91
2016-04-03T20:00:41.262Z,61.81
2016-04-03T20:01:41.234Z,61.62
2016-04-03T20:02:41.204Z,61.91
2016-04-03T20:03:41.193Z,61.81
2016-04-03T20:04:41.179Z,61.72
2016-04-03T20:05:41.166Z,61.72
2016-04-03T20:06:41.153Z,62.01
2016-04-03T20:07:41.140Z,61.81
2016-04-03T20:08:41.112Z,61.91
2016-04-03T20:09:41.099Z,61.81
2016-04-03T20:10:41.086Z,62.07
2016-04-03T20:11:41.073Z,62.26
2016-04-03T20:12:41.045Z,62.01
2016-04-03T20:13:41.031Z,61.78
2016-04-03T20:14:41.034Z,62.93
2016-04-03T20:15:40.989Z,62.65
2016-04-03T20:16:40.992Z,62.55
2016-04-03T20:17:40.947Z,62.65
2016-04-03T20:18:40.936Z,62.93
2016-04-03T20:19:40.922Z,62.84
2016-04-03T20:20:40.900Z,62.74
2016-04-03T20:21:40.886Z,62.84
2016-04-03T20:22:40.874Z,62.36
2016-04-03T20:23:40.861Z,62.74
2016-04-03T20:24:40.910Z,62.55
2016-04-03T20:25:40.819Z,62.65
2016-04-03T20:26:40.791Z,62.84
2016-04-03T20:27:40.778Z,62.84
2016-04-03T20:28:40.780Z,63.12
2016-04-03T20:29:40.752Z,63.35
2016-04-03T20:30:40.738Z,63.03
2016-04-03T20:31:40.710Z,63.64
2016-04-03T20:32:40.697Z,63.12
2016-04-03T20:33:40.700Z,63.12
2016-04-03T20:34:40.688Z,63.03
2016-04-03T20:35:40.690Z,63.42
2016-04-03T20:36:40.630Z,63.6
2016-04-03T20:37:40.617Z,63.42
2016-04-03T20:38:40.588Z,63.32
2016-04-03T20:39:40.591Z,63.12
2016-04-03T20:40:40.562Z,63.32
2016-04-03T20:41:40.534Z,63.32
2016-04-03T20:42:40.521Z,63.12
2016-04-03T20:43:40.524Z,63.12
2016-04-03T20:44:40.496Z,63.6
2016-04-03T20:45:40.482Z,63.42
2016-04-03T20:46:40.454Z,63.51
2016-04-03T20:47:40.441Z,63.12
2016-04-03T20:48:40.428Z,62.93
2016-04-03T20:49:40.400Z,63.22
2016-04-03T20:50:40.386Z,63.79
2016-04-03T20:51:40.374Z,63.51
2016-04-03T20:52:40.361Z,63.6
2016-04-03T20:53:40.348Z,64.47
2016-04-03T20:54:40.335Z,64.28
2016-04-03T20:55:40.306Z,64.18
2016-04-03T20:56:40.278Z,63.89
2016-04-03T20:57:40.264Z,63.7
2016-04-03T20:58:40.236Z,64.28
2016-04-03T20:59:40.238Z,64.47
2016-04-03T21:00:40.226Z,64.28
2016-04-03T21:01:40.197Z,64.18
2016-04-03T21:02:40.185Z,64.85
2016-04-03T21:03:40.156Z,65.2
2016-04-03T21:04:40.065Z,65.14
2016-04-03T21:05:40.115Z,64.82
2016-04-03T21:06:40.101Z,64.82
2016-04-03T21:07:40.105Z,64.63
2016-04-03T21:08:40.076Z,64.92
2016-04-03T21:09:40.063Z,65.3
2016-04-03T21:10:40.035Z,65.11
2016-04-03T21:11:40.037Z,65.3
2016-04-03T21:12:40.024Z,65.3
2016-04-03T21:13:39.979Z,65.11
2016-04-03T21:14:39.967Z,64.92
2016-04-03T21:15:39.954Z,65.49
2016-04-03T21:16:39.926Z,64.92
2016-04-03T21:17:39.912Z,65.11
2016-04-03T21:18:39.915Z,65.01
2016-04-03T21:19:39.887Z,65.3
2016-04-03T21:20:39.873Z,65.11
2016-04-03T21:21:39.845Z,65.49
2016-04-03T21:22:39.832Z,65.3
2016-04-03T21:23:39.803Z,65.49
2016-04-03T21:24:39.806Z,65.49
2016-04-03T21:25:39.777Z,64.92
2016-04-03T21:26:39.749Z,64.82
2016-04-03T21:27:39.752Z,65.68
2016-04-03T21:28:39.723Z,65.49
2016-04-03T21:29:39.711Z,65.3
2016-04-03T21:30:39.697Z,65.97
2016-04-03T21:31:39.669Z,65.3
2016-04-03T21:32:39.655Z,65.78
2016-04-03T21:33:39.627Z,65.88
2016-04-03T21:34:39.614Z,65.88
2016-04-03T21:35:39.602Z,65.68
2016-04-03T21:36:39.588Z,66.26
2016-04-03T21:37:39.560Z,65.97
2016-04-03T21:38:39.532Z,66.16
2016-04-03T21:39:39.518Z,66.45
2016-04-03T21:40:39.490Z,66.45
2016-04-03T21:41:39.492Z,67.02
2016-04-03T21:42:39.464Z,66.83
2016-04-03T21:43:39.435Z,67.12
2016-04-03T21:44:39.423Z,66.64
2016-04-03T21:45:39.426Z,67.12
2016-04-03T21:46:39.396Z,67.12
2016-04-03T21:47:39.384Z,67.02
2016-04-03T21:48:39.339Z,67.02
2016-04-03T21:49:39.326Z,67.38
2016-04-03T21:50:39.313Z,67.47
2016-04-03T21:51:39.300Z,67.38
2016-04-03T21:52:39.272Z,67.28
2016-04-03T21:53:39.275Z,67.38
2016-04-03T21:54:39.277Z,67.38
2016-04-03T21:55:39.232Z,67.47
2016-04-03T21:56:39.219Z,67.57
2016-04-03T21:57:39.191Z,67.85
2016-04-03T21:58:39.209Z,67.57
2016-04-03T21:59:39.165Z,67.76
2016-04-03T22:00:39.136Z,67.47
2016-04-03T22:01:39.123Z,67.95
2016-04-03T22:02:39.095Z,67.66
2016-04-03T22:03:39.098Z,68.14
2016-04-03T22:04:39.085Z,67.95
2016-04-03T22:05:39.056Z,67.66
2016-04-03T22:06:39.028Z,67.95
2016-04-03T22:07:39.030Z,68.14
2016-04-03T22:08:38.986Z,68.24
2016-04-03T22:09:38.973Z,68.14
2016-04-03T22:10:38.961Z,68.24
2016-04-03T22:11:38.948Z,68.52
2016-04-03T22:12:38.919Z,68.43
2016-04-03T22:13:38.906Z,67.85
2016-04-03T22:14:38.908Z,68.05
2016-04-03T22:15:38.864Z,68.33
2016-04-03T22:16:38.851Z,67.95
2016-04-03T22:17:38.838Z,67.76
2016-04-03T22:18:38.825Z,67.95
2016-04-03T22:19:38.797Z,68.24
2016-04-03T22:20:38.769Z,68.33
2016-04-03T22:21:38.755Z,68.14
2016-04-03T22:22:38.743Z,68.52
2016-04-03T22:23:38.729Z,68.24
2016-04-03T22:24:38.701Z,69.29
2016-04-03T22:25:38.676Z,69.2
2016-04-03T22:26:38.663Z,69.68
2016-04-03T22:27:38.651Z,69.48
2016-04-03T22:28:38.622Z,70.06
2016-04-03T22:29:38.609Z,70.44
2016-04-03T22:30:38.596Z,69.83
2016-04-03T22:31:38.583Z,69.77
2016-04-03T22:32:38.555Z,70.54
2016-04-03T22:33:38.541Z,70.73
2016-04-03T22:34:38.528Z,70.6
2016-04-03T22:35:38.499Z,70.54
2016-04-03T22:36:38.488Z,70.54
2016-04-03T22:37:38.458Z,70.92
2016-04-03T22:38:38.446Z,71.17
2016-04-03T22:39:38.464Z,71.46
2016-04-03T22:40:38.419Z,71.17
2016-04-03T22:41:38.376Z,71.08
2016-04-03T22:42:38.379Z,71.37
2016-04-03T22:43:38.349Z,71.84
2016-04-03T22:44:38.321Z,72.13
2016-04-03T22:45:38.307Z,72.03
2016-04-03T22:46:38.296Z,72.13
2016-04-03T22:47:38.313Z,72.42
2016-04-03T22:48:38.270Z,72.61
2016-04-03T22:49:38.273Z,72.52
2016-04-03T22:50:38.212Z,72.8
2016-04-03T22:51:38.199Z,73.28
2016-04-03T22:52:38.186Z,73.86
2016-04-03T22:53:38.173Z,73.66
2016-04-03T22:54:38.145Z,74.05
2016-04-03T22:55:38.132Z,73.57
2016-04-03T22:56:38.120Z,73.86
2016-04-03T22:57:38.107Z,74.24
2016-04-03T22:58:38.079Z,74.24
2016-04-03T22:59:38.065Z,74.43
2016-04-03T23:00:38.053Z,74.33
2016-04-03T23:01:38.023Z,74.24
2016-04-03T23:02:37.995Z,74.4
2016-04-03T23:03:37.982Z,74.33
2016-04-03T23:04:38.001Z,75.01
2016-04-03T23:05:37.942Z,75.35
2016-04-03T23:06:37.912Z,76.02
2016-04-03T23:07:37.900Z,75.64
2016-04-03T23:08:37.886Z,75.93
2016-04-03T23:09:37.873Z,75.35
2016-04-03T23:10:37.875Z,75.54
2016-04-03T23:11:37.852Z,75.83
2016-04-03T23:12:37.825Z,76.89
2016-04-03T23:13:37.796Z,76.6
2016-04-03T23:14:37.767Z,76.6
2016-04-03T23:15:37.769Z,76.6
2016-04-03T23:16:37.757Z,77.17
2016-04-03T23:17:37.709Z,77.08
2016-04-03T23:18:37.695Z,77.55
2016-04-03T23:19:37.729Z,76.79
2016-04-03T23:20:37.669Z,77.46
2016-04-03T23:21:37.642Z,76.79
2016-04-03T23:22:37.644Z,76.98
2016-04-03T23:23:37.615Z,77.55
2016-04-03T23:24:37.586Z,76.89
2016-04-03T23:25:37.558Z,77.26
2016-04-03T23:26:37.545Z,77.26
2016-04-03T23:27:37.510Z,77.17
2016-04-03T23:28:37.486Z,77.17
2016-04-03T23:29:37.461Z,77.08
2016-04-03T23:30:37.422Z,76.98
2016-04-03T23:31:37.413Z,77.75
2016-04-03T23:32:37.376Z,77.08
2016-04-03T23:33:37.344Z,77.26
2016-04-03T23:34:37.623Z,77.36
2016-04-03T23:35:37.309Z,77.08
2016-04-03T23:36:37.277Z,77.08
2016-04-03T23:37:37.261Z,77.17
2016-04-03T23:38:37.231Z,77.33
2016-04-03T23:39:37.216Z,76.94
2016-04-03T23:40:37.186Z,77.23
2016-04-03T23:41:37.172Z,77.46
2016-04-03T23:42:37.158Z,77.13
2016-04-03T23:43:37.160Z,76.79
2016-04-03T23:44:37.130Z,76.89
2016-04-03T23:45:37.117Z,76.94
2016-04-03T23:46:37.072Z,77.33
2016-04-03T23:47:37.058Z,76.75
2016-04-03T23:48:37.030Z,76.89
2016-04-03T23:49:37.095Z,77.08
2016-04-03T23:50:37.005Z,77.51
2016-04-03T23:51:36.975Z,77.51
2016-04-03T23:52:36.963Z,77.13
2016-04-03T23:53:36.949Z,77.99
2016-04-03T23:54:36.921Z,77.99
2016-04-03T23:55:36.893Z,77.51
2016-04-03T23:56:36.879Z,78.38
2016-04-03T23:57:36.866Z,78.47
2016-04-03T23:58:36.853Z,78.86
2016-04-03T23:59:36.841Z,79.52
